Westworth Village, Texas
Current Conditions -  °F | °C
As of 2:52 AM on Monday 24 Nov 2014 (Local Time) from KNFW Reporting Station
Clear Clear  
Wind Chill: 46°   Ceiling: Unl
Heat Index: 49°   Visibility: 10mi
Dew Point: 34°   Wind: 7mph
Humidity: 56%   Direction: 310°NW
Pressure: 29.95"   Gusts: NA
Location:  32.7763°N, 97.4092°W
Report Text: KNFW 240852Z AUTO 31006KT 10SM CLR 09/01 A2995 RMK AO2 SLP127 T00940011 51023 CHINO N $
Loading
Personal Weather Stations






























Interactive Weather Map New forecast layout! Learn more

10-Day Weather Forecast

Advertisements
Track Severe Weather on mobile